sensor_id;sensor_type;location;lat;lon;timestamp;P1;durP1;ratioP1;P2;durP2;ratioP2
19664;SDS011;9980;51.020;7.772;2023-10-09T00:02:09;6.03;;;5.43;;
19664;SDS011;9980;51.020;7.772;2023-10-09T00:04:38;6.83;;;6.10;;
19664;SDS011;9980;51.020;7.772;2023-10-09T00:07:12;7.27;;;6.53;;
19664;SDS011;9980;51.020;7.772;2023-10-09T00:09:43;9.60;;;7.37;;
19664;SDS011;9980;51.020;7.772;2023-10-09T00:12:16;7.60;;;6.33;;
19664;SDS011;9980;51.020;7.772;2023-10-09T00:14:49;7.13;;;5.80;;
19664;SDS011;9980;51.020;7.772;2023-10-09T00:17:21;6.67;;;5.70;;
19664;SDS011;9980;51.020;7.772;2023-10-09T00:19:48;5.80;;;5.20;;
19664;SDS011;9980;51.020;7.772;2023-10-09T00:22:17;9.80;;;7.07;;
19664;SDS011;9980;51.020;7.772;2023-10-09T00:24:53;6.87;;;5.80;;
19664;SDS011;9980;51.020;7.772;2023-10-09T00:27:42;8.20;;;5.87;;
19664;SDS011;9980;51.020;7.772;2023-10-09T00:30:12;6.30;;;5.43;;
19664;SDS011;9980;51.020;7.772;2023-10-09T00:32:45;8.37;;;5.70;;
19664;SDS011;9980;51.020;7.772;2023-10-09T00:35:25;6.33;;;5.73;;
19664;SDS011;9980;51.020;7.772;2023-10-09T00:38:20;7.70;;;4.83;;
19664;SDS011;9980;51.020;7.772;2023-10-09T00:40:48;5.30;;;4.80;;
19664;SDS011;9980;51.020;7.772;2023-10-09T00:43:34;8.07;;;6.40;;
19664;SDS011;9980;51.020;7.772;2023-10-09T00:46:04;8.90;;;6.73;;
19664;SDS011;9980;51.020;7.772;2023-10-09T00:48:49;9.73;;;6.27;;
19664;SDS011;9980;51.020;7.772;2023-10-09T00:51:23;8.27;;;5.70;;
19664;SDS011;9980;51.020;7.772;2023-10-09T00:53:56;5.43;;;4.93;;
19664;SDS011;9980;51.020;7.772;2023-10-09T00:56:26;7.13;;;4.70;;
19664;SDS011;9980;51.020;7.772;2023-10-09T00:58:57;5.47;;;4.97;;
19664;SDS011;9980;51.020;7.772;2023-10-09T01:01:36;8.13;;;6.47;;
19664;SDS011;9980;51.020;7.772;2023-10-09T01:04:06;8.33;;;6.23;;
19664;SDS011;9980;51.020;7.772;2023-10-09T01:06:38;5.67;;;5.13;;
19664;SDS011;9980;51.020;7.772;2023-10-09T01:09:11;6.10;;;5.33;;
19664;SDS011;9980;51.020;7.772;2023-10-09T01:11:41;8.57;;;6.33;;
19664;SDS011;9980;51.020;7.772;2023-10-09T01:14:17;5.20;;;4.57;;
19664;SDS011;9980;51.020;7.772;2023-10-09T01:16:47;5.90;;;5.30;;
19664;SDS011;9980;51.020;7.772;2023-10-09T01:19:15;6.20;;;5.23;;
19664;SDS011;9980;51.020;7.772;2023-10-09T01:21:51;7.93;;;5.30;;
19664;SDS011;9980;51.020;7.772;2023-10-09T01:24:18;7.90;;;5.77;;
19664;SDS011;9980;51.020;7.772;2023-10-09T01:26:47;10.47;;;5.97;;
19664;SDS011;9980;51.020;7.772;2023-10-09T01:29:16;11.83;;;7.30;;
19664;SDS011;9980;51.020;7.772;2023-10-09T01:31:47;6.33;;;5.73;;
19664;SDS011;9980;51.020;7.772;2023-10-09T01:34:26;7.03;;;6.33;;
19664;SDS011;9980;51.020;7.772;2023-10-09T01:37:06;6.70;;;6.00;;
19664;SDS011;9980;51.020;7.772;2023-10-09T01:39:52;5.57;;;5.07;;
19664;SDS011;9980;51.020;7.772;2023-10-09T01:42:25;7.57;;;6.67;;
19664;SDS011;9980;51.020;7.772;2023-10-09T01:45:11;9.87;;;6.83;;
19664;SDS011;9980;51.020;7.772;2023-10-09T01:47:43;6.03;;;5.43;;
19664;SDS011;9980;51.020;7.772;2023-10-09T01:50:18;13.50;;;7.93;;
19664;SDS011;9980;51.020;7.772;2023-10-09T01:52:48;8.07;;;7.17;;
19664;SDS011;9980;51.020;7.772;2023-10-09T01:55:17;7.73;;;6.80;;
19664;SDS011;9980;51.020;7.772;2023-10-09T01:58:01;12.57;;;7.27;;
19664;SDS011;9980;51.020;7.772;2023-10-09T02:00:42;7.83;;;5.90;;
19664;SDS011;9980;51.020;7.772;2023-10-09T02:03:16;7.57;;;5.90;;
19664;SDS011;9980;51.020;7.772;2023-10-09T02:05:50;9.00;;;5.60;;
19664;SDS011;9980;51.020;7.772;2023-10-09T02:08:26;5.63;;;4.70;;
19664;SDS011;9980;51.020;7.772;2023-10-09T02:10:53;8.13;;;6.00;;
19664;SDS011;9980;51.020;7.772;2023-10-09T02:13:23;5.27;;;4.77;;
19664;SDS011;9980;51.020;7.772;2023-10-09T02:15:56;6.53;;;5.03;;
19664;SDS011;9980;51.020;7.772;2023-10-09T02:18:42;5.50;;;5.00;;
19664;SDS011;9980;51.020;7.772;2023-10-09T02:21:19;7.07;;;5.60;;
19664;SDS011;9980;51.020;7.772;2023-10-09T02:24:05;10.13;;;6.40;;
19664;SDS011;9980;51.020;7.772;2023-10-09T02:26:50;5.30;;;4.53;;
19664;SDS011;9980;51.020;7.772;2023-10-09T02:29:17;5.93;;;4.97;;
19664;SDS011;9980;51.020;7.772;2023-10-09T02:31:44;5.57;;;4.80;;
19664;SDS011;9980;51.020;7.772;2023-10-09T02:34:18;5.63;;;5.10;;
19664;SDS011;9980;51.020;7.772;2023-10-09T02:36:50;5.57;;;4.97;;
19664;SDS011;9980;51.020;7.772;2023-10-09T02:39:24;4.73;;;4.07;;
19664;SDS011;9980;51.020;7.772;2023-10-09T02:41:56;5.97;;;4.30;;
19664;SDS011;9980;51.020;7.772;2023-10-09T02:44:28;5.40;;;4.57;;
19664;SDS011;9980;51.020;7.772;2023-10-09T02:47:06;5.17;;;4.60;;
19664;SDS011;9980;51.020;7.772;2023-10-09T02:49:43;8.53;;;5.37;;
19664;SDS011;9980;51.020;7.772;2023-10-09T02:52:11;6.93;;;5.20;;
19664;SDS011;9980;51.020;7.772;2023-10-09T02:54:43;7.20;;;5.63;;
19664;SDS011;9980;51.020;7.772;2023-10-09T02:57:13;7.10;;;5.33;;
19664;SDS011;9980;51.020;7.772;2023-10-09T02:59:49;6.10;;;5.17;;
19664;SDS011;9980;51.020;7.772;2023-10-09T03:02:18;7.27;;;5.73;;
19664;SDS011;9980;51.020;7.772;2023-10-09T03:04:45;6.33;;;4.63;;
19664;SDS011;9980;51.020;7.772;2023-10-09T03:07:12;4.80;;;4.30;;
19664;SDS011;9980;51.020;7.772;2023-10-09T03:09:40;5.87;;;4.10;;
19664;SDS011;9980;51.020;7.772;2023-10-09T03:12:08;7.93;;;5.40;;
19664;SDS011;9980;51.020;7.772;2023-10-09T03:14:45;5.60;;;4.60;;
19664;SDS011;9980;51.020;7.772;2023-10-09T03:17:12;8.03;;;4.70;;
19664;SDS011;9980;51.020;7.772;2023-10-09T03:19:39;9.50;;;4.97;;
19664;SDS011;9980;51.020;7.772;2023-10-09T03:22:09;5.23;;;4.60;;
19664;SDS011;9980;51.020;7.772;2023-10-09T03:24:40;5.03;;;4.50;;
19664;SDS011;9980;51.020;7.772;2023-10-09T03:27:08;6.10;;;5.40;;
19664;SDS011;9980;51.020;7.772;2023-10-09T03:29:35;5.50;;;4.17;;
19664;SDS011;9980;51.020;7.772;2023-10-09T03:32:03;6.93;;;4.83;;
19664;SDS011;9980;51.020;7.772;2023-10-09T03:34:30;8.37;;;5.63;;
19664;SDS011;9980;51.020;7.772;2023-10-09T03:36:57;5.37;;;4.70;;
19664;SDS011;9980;51.020;7.772;2023-10-09T03:39:31;6.33;;;4.87;;
19664;SDS011;9980;51.020;7.772;2023-10-09T03:42:13;5.30;;;4.80;;
19664;SDS011;9980;51.020;7.772;2023-10-09T03:44:46;4.93;;;4.40;;
19664;SDS011;9980;51.020;7.772;2023-10-09T03:47:20;6.40;;;4.60;;
19664;SDS011;9980;51.020;7.772;2023-10-09T03:49:51;5.57;;;4.97;;
19664;SDS011;9980;51.020;7.772;2023-10-09T03:52:19;4.90;;;4.40;;
19664;SDS011;9980;51.020;7.772;2023-10-09T03:54:49;9.13;;;5.53;;
19664;SDS011;9980;51.020;7.772;2023-10-09T03:57:17;5.97;;;5.23;;
19664;SDS011;9980;51.020;7.772;2023-10-09T03:59:47;4.80;;;4.30;;
19664;SDS011;9980;51.020;7.772;2023-10-09T04:02:14;6.00;;;5.10;;
19664;SDS011;9980;51.020;7.772;2023-10-09T04:04:42;5.17;;;4.67;;
19664;SDS011;9980;51.020;7.772;2023-10-09T04:07:17;7.20;;;6.00;;
19664;SDS011;9980;51.020;7.772;2023-10-09T04:09:44;6.23;;;5.60;;
19664;SDS011;9980;51.020;7.772;2023-10-09T04:12:14;9.37;;;5.67;;
19664;SDS011;9980;51.020;7.772;2023-10-09T04:14:51;6.03;;;5.30;;
19664;SDS011;9980;51.020;7.772;2023-10-09T04:17:21;8.37;;;5.33;;
19664;SDS011;9980;51.020;7.772;2023-10-09T04:19:59;6.80;;;5.43;;
19664;SDS011;9980;51.020;7.772;2023-10-09T04:23:01;8.27;;;4.70;;
19664;SDS011;9980;51.020;7.772;2023-10-09T04:25:32;8.63;;;5.37;;
19664;SDS011;9980;51.020;7.772;2023-10-09T04:28:09;9.43;;;6.13;;
19664;SDS011;9980;51.020;7.772;2023-10-09T04:30:45;7.37;;;5.73;;
19664;SDS011;9980;51.020;7.772;2023-10-09T04:33:14;5.60;;;4.97;;
19664;SDS011;9980;51.020;7.772;2023-10-09T04:36:02;6.27;;;4.63;;
19664;SDS011;9980;51.020;7.772;2023-10-09T04:38:47;14.10;;;5.47;;
19664;SDS011;9980;51.020;7.772;2023-10-09T04:41:30;7.47;;;5.67;;
19664;SDS011;9980;51.020;7.772;2023-10-09T04:44:19;7.10;;;5.87;;
19664;SDS011;9980;51.020;7.772;2023-10-09T04:46:49;6.17;;;4.97;;
19664;SDS011;9980;51.020;7.772;2023-10-09T04:49:40;9.47;;;6.17;;
19664;SDS011;9980;51.020;7.772;2023-10-09T04:52:17;9.10;;;6.10;;
19664;SDS011;9980;51.020;7.772;2023-10-09T04:55:05;7.93;;;6.10;;
19664;SDS011;9980;51.020;7.772;2023-10-09T04:57:37;10.13;;;6.57;;
19664;SDS011;9980;51.020;7.772;2023-10-09T05:00:13;5.13;;;4.60;;
19664;SDS011;9980;51.020;7.772;2023-10-09T05:03:08;10.80;;;5.33;;
19664;SDS011;9980;51.020;7.772;2023-10-09T05:05:39;7.37;;;4.93;;
19664;SDS011;9980;51.020;7.772;2023-10-09T05:08:11;10.73;;;5.90;;
19664;SDS011;9980;51.020;7.772;2023-10-09T05:10:47;4.80;;;4.30;;
19664;SDS011;9980;51.020;7.772;2023-10-09T05:13:36;6.43;;;5.27;;
19664;SDS011;9980;51.020;7.772;2023-10-09T05:18:54;8.27;;;5.80;;
19664;SDS011;9980;51.020;7.772;2023-10-09T05:21:24;7.77;;;5.40;;
19664;SDS011;9980;51.020;7.772;2023-10-09T05:24:04;8.83;;;6.10;;
19664;SDS011;9980;51.020;7.772;2023-10-09T05:29:23;7.10;;;6.07;;
19664;SDS011;9980;51.020;7.772;2023-10-09T05:32:00;6.47;;;5.03;;
19664;SDS011;9980;51.020;7.772;2023-10-09T05:34:42;7.57;;;5.33;;
19664;SDS011;9980;51.020;7.772;2023-10-09T05:37:28;8.17;;;6.30;;
19664;SDS011;9980;51.020;7.772;2023-10-09T05:40:04;14.77;;;6.93;;
19664;SDS011;9980;51.020;7.772;2023-10-09T05:42:45;7.37;;;6.47;;
19664;SDS011;9980;51.020;7.772;2023-10-09T05:45:24;10.40;;;6.13;;
19664;SDS011;9980;51.020;7.772;2023-10-09T05:48:10;8.13;;;5.70;;
19664;SDS011;9980;51.020;7.772;2023-10-09T05:50:40;10.33;;;6.40;;
19664;SDS011;9980;51.020;7.772;2023-10-09T05:53:26;8.47;;;6.10;;
19664;SDS011;9980;51.020;7.772;2023-10-09T05:56:11;6.67;;;5.73;;
19664;SDS011;9980;51.020;7.772;2023-10-09T05:58:58;6.70;;;4.80;;
19664;SDS011;9980;51.020;7.772;2023-10-09T06:01:43;6.70;;;5.90;;
19664;SDS011;9980;51.020;7.772;2023-10-09T06:04:28;10.80;;;6.57;;
19664;SDS011;9980;51.020;7.772;2023-10-09T06:07:20;7.83;;;5.53;;
19664;SDS011;9980;51.020;7.772;2023-10-09T06:10:07;11.67;;;6.63;;
19664;SDS011;9980;51.020;7.772;2023-10-09T06:12:45;9.80;;;6.33;;
19664;SDS011;9980;51.020;7.772;2023-10-09T06:15:17;6.83;;;5.30;;
19664;SDS011;9980;51.020;7.772;2023-10-09T06:18:18;10.17;;;6.47;;
19664;SDS011;9980;51.020;7.772;2023-10-09T06:20:59;8.80;;;6.97;;
19664;SDS011;9980;51.020;7.772;2023-10-09T06:23:45;11.33;;;6.57;;
19664;SDS011;9980;51.020;7.772;2023-10-09T06:26:31;10.03;;;5.83;;
19664;SDS011;9980;51.020;7.772;2023-10-09T06:28:59;12.13;;;6.57;;
19664;SDS011;9980;51.020;7.772;2023-10-09T06:31:42;14.50;;;8.00;;
19664;SDS011;9980;51.020;7.772;2023-10-09T06:34:27;15.87;;;9.03;;
19664;SDS011;9980;51.020;7.772;2023-10-09T06:37:02;12.20;;;8.37;;
19664;SDS011;9980;51.020;7.772;2023-10-09T06:40:00;10.20;;;8.03;;
19664;SDS011;9980;51.020;7.772;2023-10-09T06:42:56;11.73;;;8.53;;
19664;SDS011;9980;51.020;7.772;2023-10-09T06:45:23;12.20;;;9.33;;
19664;SDS011;9980;51.020;7.772;2023-10-09T06:48:10;8.90;;;6.80;;
19664;SDS011;9980;51.020;7.772;2023-10-09T06:51:17;11.80;;;7.77;;
19664;SDS011;9980;51.020;7.772;2023-10-09T06:53:53;9.20;;;7.23;;
19664;SDS011;9980;51.020;7.772;2023-10-09T06:56:22;13.10;;;7.70;;
19664;SDS011;9980;51.020;7.772;2023-10-09T07:01:40;10.60;;;7.67;;
19664;SDS011;9980;51.020;7.772;2023-10-09T07:04:11;11.93;;;8.70;;
19664;SDS011;9980;51.020;7.772;2023-10-09T07:06:46;11.23;;;8.30;;
19664;SDS011;9980;51.020;7.772;2023-10-09T07:09:17;13.57;;;9.50;;
19664;SDS011;9980;51.020;7.772;2023-10-09T07:11:51;13.83;;;9.00;;
19664;SDS011;9980;51.020;7.772;2023-10-09T07:14:19;12.93;;;9.17;;
19664;SDS011;9980;51.020;7.772;2023-10-09T07:17:18;13.00;;;8.37;;
19664;SDS011;9980;51.020;7.772;2023-10-09T07:19:49;15.23;;;9.37;;
19664;SDS011;9980;51.020;7.772;2023-10-09T07:22:17;10.00;;;7.60;;
19664;SDS011;9980;51.020;7.772;2023-10-09T07:24:48;12.43;;;9.07;;
19664;SDS011;9980;51.020;7.772;2023-10-09T07:27:24;11.30;;;8.57;;
19664;SDS011;9980;51.020;7.772;2023-10-09T07:30:28;9.23;;;8.27;;
19664;SDS011;9980;51.020;7.772;2023-10-09T07:32:56;12.20;;;8.20;;
19664;SDS011;9980;51.020;7.772;2023-10-09T07:35:39;11.47;;;8.17;;
19664;SDS011;9980;51.020;7.772;2023-10-09T07:38:21;11.97;;;8.40;;
19664;SDS011;9980;51.020;7.772;2023-10-09T07:40:55;11.70;;;7.93;;
19664;SDS011;9980;51.020;7.772;2023-10-09T07:43:30;11.00;;;7.33;;
19664;SDS011;9980;51.020;7.772;2023-10-09T07:46:12;9.60;;;7.00;;
19664;SDS011;9980;51.020;7.772;2023-10-09T07:49:01;15.53;;;8.43;;
19664;SDS011;9980;51.020;7.772;2023-10-09T07:51:36;7.90;;;6.90;;
19664;SDS011;9980;51.020;7.772;2023-10-09T07:54:13;10.57;;;7.03;;
19664;SDS011;9980;51.020;7.772;2023-10-09T07:56:58;10.30;;;7.93;;
19664;SDS011;9980;51.020;7.772;2023-10-09T07:59:35;10.20;;;7.17;;
19664;SDS011;9980;51.020;7.772;2023-10-09T08:02:07;10.47;;;8.50;;
19664;SDS011;9980;51.020;7.772;2023-10-09T08:04:39;11.87;;;8.07;;
19664;SDS011;9980;51.020;7.772;2023-10-09T08:07:16;10.67;;;7.80;;
19664;SDS011;9980;51.020;7.772;2023-10-09T08:10:07;10.23;;;7.93;;
19664;SDS011;9980;51.020;7.772;2023-10-09T08:12:44;11.23;;;8.60;;
19664;SDS011;9980;51.020;7.772;2023-10-09T08:15:16;11.70;;;8.27;;
19664;SDS011;9980;51.020;7.772;2023-10-09T08:17:51;12.67;;;8.30;;
19664;SDS011;9980;51.020;7.772;2023-10-09T08:20:30;10.10;;;8.00;;
19664;SDS011;9980;51.020;7.772;2023-10-09T08:23:16;12.67;;;8.80;;
19664;SDS011;9980;51.020;7.772;2023-10-09T08:26:02;11.83;;;8.57;;
19664;SDS011;9980;51.020;7.772;2023-10-09T08:28:43;13.10;;;8.60;;
19664;SDS011;9980;51.020;7.772;2023-10-09T08:31:12;13.77;;;8.37;;
19664;SDS011;9980;51.020;7.772;2023-10-09T08:34:02;12.60;;;8.00;;
19664;SDS011;9980;51.020;7.772;2023-10-09T08:36:33;11.97;;;7.77;;
19664;SDS011;9980;51.020;7.772;2023-10-09T08:39:03;12.50;;;8.80;;
19664;SDS011;9980;51.020;7.772;2023-10-09T08:41:43;14.13;;;9.40;;
19664;SDS011;9980;51.020;7.772;2023-10-09T08:44:11;13.63;;;9.33;;
19664;SDS011;9980;51.020;7.772;2023-10-09T08:46:41;10.27;;;8.07;;
19664;SDS011;9980;51.020;7.772;2023-10-09T08:49:10;12.93;;;8.27;;
19664;SDS011;9980;51.020;7.772;2023-10-09T08:51:37;10.27;;;7.90;;
19664;SDS011;9980;51.020;7.772;2023-10-09T08:54:04;12.77;;;9.00;;
19664;SDS011;9980;51.020;7.772;2023-10-09T08:56:38;13.37;;;8.97;;
19664;SDS011;9980;51.020;7.772;2023-10-09T08:59:16;16.47;;;8.80;;
19664;SDS011;9980;51.020;7.772;2023-10-09T09:01:47;14.27;;;8.70;;
19664;SDS011;9980;51.020;7.772;2023-10-09T09:04:37;12.40;;;7.63;;
19664;SDS011;9980;51.020;7.772;2023-10-09T09:07:26;13.93;;;8.17;;
19664;SDS011;9980;51.020;7.772;2023-10-09T09:09:56;11.40;;;7.77;;
19664;SDS011;9980;51.020;7.772;2023-10-09T09:12:29;9.70;;;8.10;;
19664;SDS011;9980;51.020;7.772;2023-10-09T09:15:03;12.43;;;8.50;;
19664;SDS011;9980;51.020;7.772;2023-10-09T09:17:45;9.53;;;7.60;;
19664;SDS011;9980;51.020;7.772;2023-10-09T09:20:19;10.47;;;7.93;;
19664;SDS011;9980;51.020;7.772;2023-10-09T09:22:53;15.57;;;8.60;;
19664;SDS011;9980;51.020;7.772;2023-10-09T09:25:23;11.53;;;8.80;;
19664;SDS011;9980;51.020;7.772;2023-10-09T09:27:51;10.50;;;8.77;;
19664;SDS011;9980;51.020;7.772;2023-10-09T09:30:25;11.03;;;8.53;;
19664;SDS011;9980;51.020;7.772;2023-10-09T09:33:16;11.03;;;8.60;;
19664;SDS011;9980;51.020;7.772;2023-10-09T09:35:56;13.07;;;8.83;;
19664;SDS011;9980;51.020;7.772;2023-10-09T09:38:32;10.97;;;8.83;;
19664;SDS011;9980;51.020;7.772;2023-10-09T09:41:15;11.10;;;9.33;;
19664;SDS011;9980;51.020;7.772;2023-10-09T09:43:53;13.53;;;8.80;;
19664;SDS011;9980;51.020;7.772;2023-10-09T09:46:33;10.37;;;8.93;;
19664;SDS011;9980;51.020;7.772;2023-10-09T09:49:02;13.17;;;9.43;;
19664;SDS011;9980;51.020;7.772;2023-10-09T09:51:42;11.20;;;9.10;;
19664;SDS011;9980;51.020;7.772;2023-10-09T09:54:13;14.20;;;9.33;;
19664;SDS011;9980;51.020;7.772;2023-10-09T09:56:44;11.17;;;9.10;;
19664;SDS011;9980;51.020;7.772;2023-10-09T09:59:18;12.33;;;8.13;;
19664;SDS011;9980;51.020;7.772;2023-10-09T10:01:49;15.20;;;8.60;;
19664;SDS011;9980;51.020;7.772;2023-10-09T10:04:28;10.83;;;8.03;;
19664;SDS011;9980;51.020;7.772;2023-10-09T10:07:01;9.27;;;7.03;;
19664;SDS011;9980;51.020;7.772;2023-10-09T10:09:41;8.97;;;7.43;;
19664;SDS011;9980;51.020;7.772;2023-10-09T10:12:11;11.60;;;8.17;;
19664;SDS011;9980;51.020;7.772;2023-10-09T10:20:25;11.47;;;8.93;;
19664;SDS011;9980;51.020;7.772;2023-10-09T10:23:36;13.57;;;8.47;;
19664;SDS011;9980;51.020;7.772;2023-10-09T10:25:46;14.07;;;8.23;;
19664;SDS011;9980;51.020;7.772;2023-10-09T10:30:55;9.77;;;8.00;;
19664;SDS011;9980;51.020;7.772;2023-10-09T10:33:27;12.27;;;7.50;;
19664;SDS011;9980;51.020;7.772;2023-10-09T10:36:22;10.43;;;8.00;;
19664;SDS011;9980;51.020;7.772;2023-10-09T10:39:00;10.93;;;7.57;;
19664;SDS011;9980;51.020;7.772;2023-10-09T10:41:38;12.40;;;7.83;;
19664;SDS011;9980;51.020;7.772;2023-10-09T10:44:30;8.87;;;6.70;;
19664;SDS011;9980;51.020;7.772;2023-10-09T10:47:11;12.33;;;7.73;;
19664;SDS011;9980;51.020;7.772;2023-10-09T10:49:50;10.87;;;7.33;;
19664;SDS011;9980;51.020;7.772;2023-10-09T10:52:25;9.80;;;6.57;;
19664;SDS011;9980;51.020;7.772;2023-10-09T10:55:12;10.27;;;7.13;;
19664;SDS011;9980;51.020;7.772;2023-10-09T10:57:57;9.77;;;6.50;;
19664;SDS011;9980;51.020;7.772;2023-10-09T11:00:28;8.70;;;6.20;;
19664;SDS011;9980;51.020;7.772;2023-10-09T11:03:20;8.20;;;5.97;;
19664;SDS011;9980;51.020;7.772;2023-10-09T11:06:02;9.97;;;7.00;;
19664;SDS011;9980;51.020;7.772;2023-10-09T11:08:45;7.57;;;6.67;;
19664;SDS011;9980;51.020;7.772;2023-10-09T11:11:23;9.77;;;6.67;;
19664;SDS011;9980;51.020;7.772;2023-10-09T11:14:07;10.67;;;6.20;;
19664;SDS011;9980;51.020;7.772;2023-10-09T11:16:50;9.47;;;6.23;;
19664;SDS011;9980;51.020;7.772;2023-10-09T11:19:21;10.47;;;5.70;;
19664;SDS011;9980;51.020;7.772;2023-10-09T11:21:55;9.67;;;6.40;;
19664;SDS011;9980;51.020;7.772;2023-10-09T11:24:28;7.77;;;6.07;;
19664;SDS011;9980;51.020;7.772;2023-10-09T11:27:05;16.00;;;7.33;;
19664;SDS011;9980;51.020;7.772;2023-10-09T11:29:33;9.80;;;6.63;;
19664;SDS011;9980;51.020;7.772;2023-10-09T11:35:09;9.47;;;7.37;;
19664;SDS011;9980;51.020;7.772;2023-10-09T11:37:57;10.20;;;6.63;;
19664;SDS011;9980;51.020;7.772;2023-10-09T11:40:28;8.63;;;6.30;;
19664;SDS011;9980;51.020;7.772;2023-10-09T11:43:20;8.80;;;7.07;;
19664;SDS011;9980;51.020;7.772;2023-10-09T11:46:09;7.97;;;6.20;;
19664;SDS011;9980;51.020;7.772;2023-10-09T11:49:07;8.33;;;6.30;;
19664;SDS011;9980;51.020;7.772;2023-10-09T11:51:47;9.73;;;6.83;;
19664;SDS011;9980;51.020;7.772;2023-10-09T11:54:34;8.20;;;6.27;;
19664;SDS011;9980;51.020;7.772;2023-10-09T11:57:02;9.97;;;5.97;;
19664;SDS011;9980;51.020;7.772;2023-10-09T11:59:30;7.20;;;5.50;;
19664;SDS011;9980;51.020;7.772;2023-10-09T12:02:04;9.10;;;6.22;;
19664;SDS011;9980;51.020;7.772;2023-10-09T12:04:38;10.83;;;6.30;;
19664;SDS011;9980;51.020;7.772;2023-10-09T12:07:12;8.30;;;6.00;;
19664;SDS011;9980;51.020;7.772;2023-10-09T12:09:39;8.33;;;5.90;;
19664;SDS011;9980;51.020;7.772;2023-10-09T12:12:07;8.60;;;6.00;;
19664;SDS011;9980;51.020;7.772;2023-10-09T12:14:37;7.83;;;5.77;;
19664;SDS011;9980;51.020;7.772;2023-10-09T12:17:06;9.30;;;5.80;;
19664;SDS011;9980;51.020;7.772;2023-10-09T12:19:36;8.13;;;5.27;;
19664;SDS011;9980;51.020;7.772;2023-10-09T12:22:06;6.67;;;4.93;;
19664;SDS011;9980;51.020;7.772;2023-10-09T12:24:42;10.65;;;5.10;;
19664;SDS011;9980;51.020;7.772;2023-10-09T12:27:09;5.47;;;4.93;;
19664;SDS011;9980;51.020;7.772;2023-10-09T12:29:37;7.22;;;4.72;;
19664;SDS011;9980;51.020;7.772;2023-10-09T12:32:11;7.13;;;4.72;;
19664;SDS011;9980;51.020;7.772;2023-10-09T12:34:39;9.40;;;4.60;;
19664;SDS011;9980;51.020;7.772;2023-10-09T12:37:06;8.70;;;5.53;;
19664;SDS011;9980;51.020;7.772;2023-10-09T12:39:33;7.38;;;5.10;;
19664;SDS011;9980;51.020;7.772;2023-10-09T12:42:00;8.88;;;5.03;;
19664;SDS011;9980;51.020;7.772;2023-10-09T12:44:35;8.00;;;5.35;;
19664;SDS011;9980;51.020;7.772;2023-10-09T12:47:05;8.37;;;5.73;;
19664;SDS011;9980;51.020;7.772;2023-10-09T12:49:33;7.47;;;4.70;;
19664;SDS011;9980;51.020;7.772;2023-10-09T12:52:00;7.03;;;4.90;;
19664;SDS011;9980;51.020;7.772;2023-10-09T12:54:27;7.43;;;5.07;;
19664;SDS011;9980;51.020;7.772;2023-10-09T12:56:54;5.67;;;4.50;;
19664;SDS011;9980;51.020;7.772;2023-10-09T12:59:22;8.90;;;5.30;;
19664;SDS011;9980;51.020;7.772;2023-10-09T13:01:50;9.10;;;4.72;;
19664;SDS011;9980;51.020;7.772;2023-10-09T13:04:24;8.53;;;5.03;;
19664;SDS011;9980;51.020;7.772;2023-10-09T13:06:58;8.43;;;5.10;;
19664;SDS011;9980;51.020;7.772;2023-10-09T13:09:29;12.07;;;5.57;;
19664;SDS011;9980;51.020;7.772;2023-10-09T13:12:02;8.18;;;4.72;;
19664;SDS011;9980;51.020;7.772;2023-10-09T13:14:31;9.23;;;5.00;;
19664;SDS011;9980;51.020;7.772;2023-10-09T13:17:00;8.23;;;4.93;;
19664;SDS011;9980;51.020;7.772;2023-10-09T13:19:35;8.73;;;4.90;;
19664;SDS011;9980;51.020;7.772;2023-10-09T13:22:02;6.43;;;5.17;;
19664;SDS011;9980;51.020;7.772;2023-10-09T13:24:30;9.17;;;5.47;;
19664;SDS011;9980;51.020;7.772;2023-10-09T13:26:57;8.57;;;5.15;;
19664;SDS011;9980;51.020;7.772;2023-10-09T13:29:30;15.85;;;5.25;;
19664;SDS011;9980;51.020;7.772;2023-10-09T13:32:00;13.23;;;5.10;;
19664;SDS011;9980;51.020;7.772;2023-10-09T13:34:29;8.63;;;4.63;;
19664;SDS011;9980;51.020;7.772;2023-10-09T13:36:57;8.98;;;4.43;;
19664;SDS011;9980;51.020;7.772;2023-10-09T13:39:26;7.43;;;5.20;;
19664;SDS011;9980;51.020;7.772;2023-10-09T13:41:54;6.57;;;4.53;;
19664;SDS011;9980;51.020;7.772;2023-10-09T13:44:33;5.93;;;4.38;;
19664;SDS011;9980;51.020;7.772;2023-10-09T13:47:05;6.43;;;4.60;;
19664;SDS011;9980;51.020;7.772;2023-10-09T13:49:35;8.98;;;4.82;;
19664;SDS011;9980;51.020;7.772;2023-10-09T13:52:09;7.57;;;5.05;;
19664;SDS011;9980;51.020;7.772;2023-10-09T13:54:36;5.45;;;4.63;;
19664;SDS011;9980;51.020;7.772;2023-10-09T13:57:03;10.05;;;5.15;;
19664;SDS011;9980;51.020;7.772;2023-10-09T13:59:33;7.57;;;5.00;;
19664;SDS011;9980;51.020;7.772;2023-10-09T14:02:02;7.03;;;4.88;;
19664;SDS011;9980;51.020;7.772;2023-10-09T14:04:43;11.52;;;4.75;;
19664;SDS011;9980;51.020;7.772;2023-10-09T14:07:16;5.80;;;4.70;;
19664;SDS011;9980;51.020;7.772;2023-10-09T14:09:47;11.80;;;5.27;;
19664;SDS011;9980;51.020;7.772;2023-10-09T14:12:34;15.83;;;5.87;;
19664;SDS011;9980;51.020;7.772;2023-10-09T14:15:06;33.20;;;14.63;;
19664;SDS011;9980;51.020;7.772;2023-10-09T14:17:37;14.00;;;7.30;;
19664;SDS011;9980;51.020;7.772;2023-10-09T14:20:09;21.83;;;12.17;;
19664;SDS011;9980;51.020;7.772;2023-10-09T14:22:55;30.70;;;15.15;;
19664;SDS011;9980;51.020;7.772;2023-10-09T14:25:22;12.93;;;7.15;;
19664;SDS011;9980;51.020;7.772;2023-10-09T14:27:49;28.17;;;13.52;;
19664;SDS011;9980;51.020;7.772;2023-10-09T14:30:19;11.85;;;7.20;;
19664;SDS011;9980;51.020;7.772;2023-10-09T14:32:57;11.47;;;6.10;;
19664;SDS011;9980;51.020;7.772;2023-10-09T14:35:24;13.63;;;7.90;;
19664;SDS011;9980;51.020;7.772;2023-10-09T14:37:56;16.43;;;8.67;;
19664;SDS011;9980;51.020;7.772;2023-10-09T14:40:24;10.10;;;6.90;;
19664;SDS011;9980;51.020;7.772;2023-10-09T14:42:56;11.43;;;6.20;;
19664;SDS011;9980;51.020;7.772;2023-10-09T14:45:24;9.97;;;6.17;;
19664;SDS011;9980;51.020;7.772;2023-10-09T14:47:52;10.05;;;6.40;;
19664;SDS011;9980;51.020;7.772;2023-10-09T14:50:20;11.47;;;7.33;;
19664;SDS011;9980;51.020;7.772;2023-10-09T14:52:49;11.93;;;6.83;;
19664;SDS011;9980;51.020;7.772;2023-10-09T14:55:17;12.80;;;6.70;;
19664;SDS011;9980;51.020;7.772;2023-10-09T14:57:47;9.30;;;6.70;;
19664;SDS011;9980;51.020;7.772;2023-10-09T15:00:18;9.97;;;5.97;;
19664;SDS011;9980;51.020;7.772;2023-10-09T15:02:49;9.10;;;6.43;;
19664;SDS011;9980;51.020;7.772;2023-10-09T15:05:17;9.10;;;6.83;;
19664;SDS011;9980;51.020;7.772;2023-10-09T15:07:44;8.47;;;6.53;;
19664;SDS011;9980;51.020;7.772;2023-10-09T15:10:13;12.23;;;6.50;;
19664;SDS011;9980;51.020;7.772;2023-10-09T15:12:44;8.50;;;6.23;;
19664;SDS011;9980;51.020;7.772;2023-10-09T15:15:13;10.93;;;5.80;;
19664;SDS011;9980;51.020;7.772;2023-10-09T15:17:41;9.53;;;6.53;;
19664;SDS011;9980;51.020;7.772;2023-10-09T15:20:14;8.23;;;6.00;;
19664;SDS011;9980;51.020;7.772;2023-10-09T15:22:42;10.13;;;7.03;;
19664;SDS011;9980;51.020;7.772;2023-10-09T15:25:10;8.20;;;6.53;;
19664;SDS011;9980;51.020;7.772;2023-10-09T15:27:42;10.27;;;5.90;;
19664;SDS011;9980;51.020;7.772;2023-10-09T15:30:12;8.97;;;6.47;;
19664;SDS011;9980;51.020;7.772;2023-10-09T15:32:43;9.57;;;6.27;;
19664;SDS011;9980;51.020;7.772;2023-10-09T15:35:11;6.77;;;5.53;;
19664;SDS011;9980;51.020;7.772;2023-10-09T15:37:41;7.77;;;5.30;;
19664;SDS011;9980;51.020;7.772;2023-10-09T15:40:09;10.10;;;5.97;;
19664;SDS011;9980;51.020;7.772;2023-10-09T15:42:44;7.93;;;6.40;;
19664;SDS011;9980;51.020;7.772;2023-10-09T15:45:22;13.03;;;6.73;;
19664;SDS011;9980;51.020;7.772;2023-10-09T15:47:50;8.67;;;6.73;;
19664;SDS011;9980;51.020;7.772;2023-10-09T15:50:18;7.87;;;5.80;;
19664;SDS011;9980;51.020;7.772;2023-10-09T15:52:51;11.50;;;6.50;;
19664;SDS011;9980;51.020;7.772;2023-10-09T15:55:20;9.73;;;6.30;;
19664;SDS011;9980;51.020;7.772;2023-10-09T15:57:51;11.17;;;6.73;;
19664;SDS011;9980;51.020;7.772;2023-10-09T16:00:21;12.53;;;6.00;;
19664;SDS011;9980;51.020;7.772;2023-10-09T16:02:54;8.20;;;5.60;;